Time;durP1;ratioP1;P1;durP2;ratioP2;P2;SDS_P1;SDS_P2;PMS_P1;PMS_P2;Temp;Humidity;BMP_temperature;BMP_pressure;BME280_temperature;BME280_humidity;BME280_pressure;Samples;Min_cycle;Max_cycle;Signal;HPM_P1;HPM_P2
2024/04/06 00:00:11;;;;;;;67.60;12.55;;;;;;;;;;5020343;28;20033;-58
2024/04/06 00:02:40;;;;;;;73.72;12.73;;;;;;;;;;5015541;28;20483;-53
2024/04/06 00:05:12;;;;;;;66.05;12.30;;;;;;;;;;5024261;28;20033;-51
2024/04/06 00:07:40;;;;;;;62.28;11.23;;;;;;;;;;5024084;28;20037;-53
2024/04/06 00:10:07;;;;;;;70.90;12.48;;;;;;;;;;5021405;28;20380;-54
2024/04/06 00:12:35;;;;;;;63.45;11.27;;;;;;;;;;5027219;28;20068;-49
2024/04/06 00:15:02;;;;;;;57.55;11.23;;;;;;;;;;5025989;28;20077;-54
2024/04/06 00:17:29;;;;;;;59.35;11.50;;;;;;;;;;5014400;28;20451;-49
2024/04/06 00:19:56;;;;;;;62.63;13.48;;;;;;;;;;5016845;28;20034;-55
2024/04/06 00:22:23;;;;;;;75.75;13.90;;;;;;;;;;5019652;28;20476;-49
2024/04/06 00:24:50;;;;;;;74.85;14.25;;;;;;;;;;5024542;28;20484;-49
2024/04/06 00:27:17;;;;;;;59.20;14.02;;;;;;;;;;5024809;28;20029;-54
2024/04/06 00:29:44;;;;;;;79.75;15.52;;;;;;;;;;5024375;28;20032;-53
2024/04/06 00:32:11;;;;;;;78.22;16.15;;;;;;;;;;5024256;28;20048;-49
2024/04/06 00:34:38;;;;;;;89.60;17.80;;;;;;;;;;5019191;28;21015;-51
2024/04/06 00:37:07;;;;;;;96.53;19.08;;;;;;;;;;5016246;28;20022;-53
2024/04/06 00:39:34;;;;;;;81.20;21.00;;;;;;;;;;5016638;28;20049;-48
2024/04/06 00:42:01;;;;;;;91.50;18.92;;;;;;;;;;5015593;28;20029;-50
2024/04/06 00:44:28;;;;;;;96.32;20.52;;;;;;;;;;5017130;28;20039;-48
2024/04/06 00:46:55;;;;;;;94.25;21.63;;;;;;;;;;5018346;28;20025;-50
2024/04/06 00:49:22;;;;;;;106.15;23.90;;;;;;;;;;5013831;28;20030;-47
2024/04/06 00:51:49;;;;;;;91.00;23.63;;;;;;;;;;5018102;28;20054;-51
2024/04/06 00:54:17;;;;;;;107.63;26.38;;;;;;;;;;5016209;28;20067;-49
2024/04/06 00:56:44;;;;;;;97.53;25.23;;;;;;;;;;5013621;28;20048;-52
2024/04/06 00:59:11;;;;;;;115.53;27.15;;;;;;;;;;5016192;28;20036;-50
2024/04/06 01:01:38;;;;;;;99.43;25.35;;;;;;;;;;5013069;28;20480;-48
2024/04/06 01:04:05;;;;;;;114.35;25.60;;;;;;;;;;5015193;28;20037;-53
2024/04/06 01:06:32;;;;;;;115.13;26.90;;;;;;;;;;5027792;28;20042;-48
2024/04/06 01:08:59;;;;;;;115.45;27.13;;;;;;;;;;5019200;28;20042;-52
2024/04/06 01:11:27;;;;;;;103.90;25.95;;;;;;;;;;5030173;28;20509;-50
2024/04/06 01:13:54;;;;;;;89.63;26.25;;;;;;;;;;5030758;28;20021;-48
2024/04/06 01:16:21;;;;;;;108.35;27.48;;;;;;;;;;5030282;28;20025;-46
2024/04/06 01:18:48;;;;;;;103.80;26.88;;;;;;;;;;5030634;28;20044;-47
2024/04/06 01:21:19;;;;;;;89.82;26.85;;;;;;;;;;5027824;28;20033;-47
2024/04/06 01:23:47;;;;;;;101.20;27.58;;;;;;;;;;5021457;28;20045;-48
2024/04/06 01:26:14;;;;;;;94.13;26.73;;;;;;;;;;5025670;28;20029;-46
2024/04/06 01:28:42;;;;;;;101.55;26.15;;;;;;;;;;5026297;28;20233;-48
2024/04/06 01:31:10;;;;;;;80.47;24.38;;;;;;;;;;5019592;28;20400;-47
2024/04/06 01:33:37;;;;;;;82.95;24.38;;;;;;;;;;5029568;28;20033;-48
2024/04/06 01:36:04;;;;;;;94.90;25.17;;;;;;;;;;5028119;28;20055;-48
2024/04/06 01:38:31;;;;;;;79.95;22.83;;;;;;;;;;5024131;28;20029;-52
2024/04/06 01:40:59;;;;;;;63.30;20.08;;;;;;;;;;5025528;28;20026;-49
2024/04/06 01:43:26;;;;;;;66.85;21.15;;;;;;;;;;5022886;28;20033;-46
2024/04/06 01:45:53;;;;;;;67.78;19.75;;;;;;;;;;5025032;28;20400;-48
2024/04/06 01:48:21;;;;;;;66.32;19.02;;;;;;;;;;5030296;28;20041;-50
2024/04/06 01:50:48;;;;;;;71.13;18.38;;;;;;;;;;5024992;28;20084;-46
2024/04/06 01:53:15;;;;;;;59.65;18.45;;;;;;;;;;5027466;28;20069;-47
2024/04/06 01:55:42;;;;;;;59.08;17.48;;;;;;;;;;5030567;28;20050;-51
2024/04/06 01:58:10;;;;;;;57.08;17.73;;;;;;;;;;5030815;28;20025;-54
2024/04/06 02:00:37;;;;;;;58.22;16.02;;;;;;;;;;5021990;28;20392;-49
2024/04/06 02:03:05;;;;;;;51.15;15.18;;;;;;;;;;5019832;28;20496;-47
2024/04/06 02:05:31;;;;;;;46.15;13.85;;;;;;;;;;5030701;28;20037;-48
2024/04/06 02:07:58;;;;;;;48.50;14.50;;;;;;;;;;5023543;28;20041;-48
2024/04/06 02:10:25;;;;;;;48.67;15.50;;;;;;;;;;5034343;28;20033;-46
2024/04/06 02:12:54;;;;;;;45.15;13.07;;;;;;;;;;5034648;28;20036;-51
2024/04/06 02:15:22;;;;;;;46.00;12.90;;;;;;;;;;5051502;28;20094;-49
2024/04/06 02:17:49;;;;;;;43.58;11.93;;;;;;;;;;5052957;28;20035;-49
2024/04/06 02:20:17;;;;;;;34.97;11.73;;;;;;;;;;5054259;28;20017;-48
2024/04/06 02:22:44;;;;;;;41.53;12.65;;;;;;;;;;5035901;28;20112;-46
2024/04/06 02:25:11;;;;;;;37.13;11.27;;;;;;;;;;5033435;28;20036;-50
2024/04/06 02:27:38;;;;;;;45.75;12.38;;;;;;;;;;5034431;28;20045;-46
2024/04/06 02:30:06;;;;;;;40.60;11.40;;;;;;;;;;5033972;28;20032;-46
2024/04/06 02:32:34;;;;;;;42.38;11.88;;;;;;;;;;5045702;28;20025;-48
2024/04/06 02:35:01;;;;;;;33.63;10.77;;;;;;;;;;5051731;28;20513;-45
2024/04/06 02:37:28;;;;;;;34.95;10.95;;;;;;;;;;5047791;28;20081;-47
2024/04/06 02:39:55;;;;;;;40.33;11.50;;;;;;;;;;5048572;28;20099;-47
2024/04/06 02:42:22;;;;;;;32.40;10.98;;;;;;;;;;5052152;28;20036;-48
2024/04/06 02:44:49;;;;;;;32.58;11.15;;;;;;;;;;5052870;28;20691;-46
2024/04/06 02:47:16;;;;;;;36.42;10.38;;;;;;;;;;5053637;28;20079;-46
2024/04/06 02:49:43;;;;;;;31.42;8.98;;;;;;;;;;5047087;28;20032;-48
2024/04/06 02:52:10;;;;;;;26.42;8.98;;;;;;;;;;5046864;28;20083;-46
2024/04/06 02:54:37;;;;;;;27.88;8.35;;;;;;;;;;5039533;28;20029;-48
2024/04/06 02:57:04;;;;;;;26.20;8.75;;;;;;;;;;5042060;28;20065;-47
2024/04/06 02:59:31;;;;;;;27.60;9.07;;;;;;;;;;5043211;28;20044;-47
2024/04/06 03:01:59;;;;;;;26.30;8.10;;;;;;;;;;5040017;28;20057;-47
2024/04/06 03:04:26;;;;;;;17.80;7.15;;;;;;;;;;5033627;28;20052;-55
2024/04/06 03:06:53;;;;;;;21.58;6.30;;;;;;;;;;5031465;28;20399;-52
2024/04/06 03:09:20;;;;;;;17.55;5.75;;;;;;;;;;5046995;28;20060;-48
2024/04/06 03:11:48;;;;;;;16.63;5.28;;;;;;;;;;5048961;28;20476;-53
2024/04/06 03:14:19;;;;;;;15.50;4.85;;;;;;;;;;5041246;28;20029;-54
2024/04/06 03:16:47;;;;;;;15.40;4.82;;;;;;;;;;5043957;28;20022;-51
2024/04/06 03:19:14;;;;;;;15.82;4.25;;;;;;;;;;5038613;28;20120;-52
2024/04/06 03:21:41;;;;;;;14.65;3.67;;;;;;;;;;5036745;28;20467;-52
2024/04/06 03:27:19;;;;;;;10.73;3.13;;;;;;;;;;5025764;28;20098;-50
2024/04/06 03:29:46;;;;;;;11.93;3.53;;;;;;;;;;5028971;28;20392;-55
2024/04/06 03:32:14;;;;;;;9.52;2.40;;;;;;;;;;5033758;28;20076;-52
2024/04/06 03:34:42;;;;;;;16.67;2.65;;;;;;;;;;5040175;28;20061;-50
2024/04/06 03:37:09;;;;;;;10.98;2.25;;;;;;;;;;5051131;28;20028;-48
2024/04/06 03:39:36;;;;;;;13.23;2.38;;;;;;;;;;5051549;28;20400;-48
2024/04/06 03:42:03;;;;;;;10.40;2.33;;;;;;;;;;5051064;28;20029;-50
2024/04/06 03:44:30;;;;;;;15.38;1.63;;;;;;;;;;5046901;28;20085;-46
2024/04/06 03:46:57;;;;;;;15.25;2.58;;;;;;;;;;5042689;28;20116;-48
2024/04/06 03:49:24;;;;;;;12.20;2.17;;;;;;;;;;5044942;28;20091;-50
2024/04/06 03:51:51;;;;;;;15.15;2.00;;;;;;;;;;5049824;28;20040;-49
2024/04/06 03:54:18;;;;;;;13.10;2.10;;;;;;;;;;5041188;28;20108;-52
2024/04/06 03:56:45;;;;;;;17.50;2.33;;;;;;;;;;5034487;28;20030;-47
2024/04/06 03:59:14;;;;;;;11.02;1.77;;;;;;;;;;5029690;28;20064;-47
2024/04/06 04:01:41;;;;;;;9.05;1.70;;;;;;;;;;5030882;28;20029;-47
2024/04/06 04:04:08;;;;;;;12.02;1.90;;;;;;;;;;5032214;28;20518;-47
2024/04/06 04:06:53;;;;;;;8.27;1.30;;;;;;;;;;5031706;28;20496;-48
2024/04/06 04:09:20;;;;;;;13.50;1.98;;;;;;;;;;5030286;28;20053;-49
2024/04/06 04:11:47;;;;;;;8.07;1.88;;;;;;;;;;5031609;28;20030;-52
2024/04/06 04:14:14;;;;;;;14.57;1.88;;;;;;;;;;5032141;28;20099;-48
2024/04/06 04:16:41;;;;;;;9.75;1.67;;;;;;;;;;5030339;28;20018;-48
2024/04/06 04:19:08;;;;;;;9.75;1.35;;;;;;;;;;5032120;28;20076;-48
2024/04/06 04:21:35;;;;;;;9.25;1.60;;;;;;;;;;5032453;28;20021;-46
2024/04/06 04:24:02;;;;;;;10.45;1.67;;;;;;;;;;5032483;28;20029;-48
2024/04/06 04:26:29;;;;;;;12.65;1.95;;;;;;;;;;5031949;28;20033;-47
2024/04/06 04:28:57;;;;;;;13.10;1.92;;;;;;;;;;5032245;28;20017;-49
2024/04/06 04:31:24;;;;;;;11.93;1.60;;;;;;;;;;5032361;28;20075;-48
2024/04/06 04:33:51;;;;;;;10.32;1.40;;;;;;;;;;5030709;28;20037;-48
2024/04/06 04:36:18;;;;;;;10.82;1.70;;;;;;;;;;5031537;28;20053;-49
2024/04/06 04:38:45;;;;;;;14.25;1.92;;;;;;;;;;5032096;28;20033;-51
2024/04/06 04:41:12;;;;;;;10.57;1.50;;;;;;;;;;5032063;28;20519;-47
2024/04/06 04:43:39;;;;;;;6.68;1.50;;;;;;;;;;5032154;28;20026;-48
2024/04/06 04:46:06;;;;;;;11.73;1.95;;;;;;;;;;5031707;28;20037;-47
2024/04/06 04:48:51;;;;;;;13.40;1.73;;;;;;;;;;5030337;28;20400;-46
2024/04/06 04:51:19;;;;;;;14.48;1.70;;;;;;;;;;5045851;28;20041;-46
2024/04/06 04:53:47;;;;;;;7.03;1.42;;;;;;;;;;5047246;28;20040;-46
2024/04/06 04:56:13;;;;;;;13.10;2.25;;;;;;;;;;5045595;28;20120;-46
2024/04/06 04:58:40;;;;;;;7.47;1.75;;;;;;;;;;5045177;28;20041;-47
2024/04/06 05:01:08;;;;;;;9.05;1.63;;;;;;;;;;5045561;28;20108;-47
2024/04/06 05:03:35;;;;;;;8.00;1.40;;;;;;;;;;5051364;28;20036;-46
2024/04/06 05:06:02;;;;;;;7.93;1.60;;;;;;;;;;5050610;28;20036;-46
2024/04/06 05:08:31;;;;;;;10.82;2.17;;;;;;;;;;5035788;28;20104;-51
2024/04/06 05:10:58;;;;;;;9.43;1.80;;;;;;;;;;5031298;28;20045;-48
2024/04/06 05:13:25;;;;;;;11.50;2.33;;;;;;;;;;5031383;28;20034;-45
2024/04/06 05:15:54;;;;;;;9.77;2.58;;;;;;;;;;5030819;28;20072;-46
2024/04/06 05:18:21;;;;;;;9.10;1.95;;;;;;;;;;5029937;28;20029;-45
2024/04/06 05:20:54;;;;;;;9.77;1.70;;;;;;;;;;5025435;28;20470;-45
2024/04/06 05:23:22;;;;;;;12.73;1.75;;;;;;;;;;5031312;28;20022;-46
2024/04/06 05:25:50;;;;;;;7.72;1.55;;;;;;;;;;5031080;28;20025;-46
2024/04/06 05:28:21;;;;;;;15.68;1.65;;;;;;;;;;5031123;28;20384;-46
2024/04/06 05:30:48;;;;;;;7.00;1.75;;;;;;;;;;5031320;28;20053;-46
2024/04/06 05:33:16;;;;;;;6.22;1.63;;;;;;;;;;5031412;28;20381;-50
2024/04/06 05:35:43;;;;;;;13.68;1.65;;;;;;;;;;5030872;28;20061;-46
2024/04/06 05:38:10;;;;;;;8.93;1.88;;;;;;;;;;5031251;28;20041;-47
2024/04/06 05:40:41;;;;;;;9.38;1.50;;;;;;;;;;5031266;28;20032;-50
2024/04/06 05:43:08;;;;;;;10.02;1.48;;;;;;;;;;5031155;28;20033;-48
2024/04/06 05:45:37;;;;;;;5.22;1.63;;;;;;;;;;5030668;28;20097;-46
2024/04/06 05:48:05;;;;;;;11.57;1.67;;;;;;;;;;5031326;28;20030;-46
2024/04/06 05:50:36;;;;;;;14.07;1.50;;;;;;;;;;5031187;28;20113;-46
2024/04/06 05:56:08;;;;;;;10.57;1.73;;;;;;;;;;5028691;28;20107;-50
2024/04/06 05:58:37;;;;;;;8.48;1.52;;;;;;;;;;5029919;28;20025;-47
2024/04/06 06:01:04;;;;;;;7.78;1.60;;;;;;;;;;5027505;28;20076;-54
2024/04/06 06:03:31;;;;;;;9.27;1.40;;;;;;;;;;5045847;28;20505;-47
2024/04/06 06:05:58;;;;;;;10.05;1.33;;;;;;;;;;5030410;28;20038;-48
2024/04/06 06:08:25;;;;;;;9.50;1.30;;;;;;;;;;5031153;28;20057;-47
2024/04/06 06:10:52;;;;;;;8.52;1.80;;;;;;;;;;5031140;28;20021;-46
2024/04/06 06:13:19;;;;;;;11.82;1.63;;;;;;;;;;5030887;28;20079;-47
2024/04/06 06:15:46;;;;;;;9.63;1.50;;;;;;;;;;5030530;28;20569;-48
2024/04/06 06:18:13;;;;;;;7.93;1.27;;;;;;;;;;5031044;28;20419;-47
2024/04/06 06:20:40;;;;;;;8.98;1.55;;;;;;;;;;5030916;28;20099;-48
2024/04/06 06:23:07;;;;;;;9.05;1.52;;;;;;;;;;5030788;28;20072;-49
2024/04/06 06:25:34;;;;;;;9.65;1.52;;;;;;;;;;5030354;28;20022;-48
2024/04/06 06:28:01;;;;;;;7.78;1.73;;;;;;;;;;5025386;28;20757;-50
2024/04/06 06:30:28;;;;;;;8.05;1.70;;;;;;;;;;5029616;28;20044;-51
2024/04/06 06:32:57;;;;;;;7.72;1.33;;;;;;;;;;5030814;28;20061;-47
2024/04/06 06:35:24;;;;;;;7.63;1.30;;;;;;;;;;5030039;28;20076;-47
2024/04/06 06:37:51;;;;;;;9.88;1.67;;;;;;;;;;5030875;28;20114;-47
2024/04/06 06:40:19;;;;;;;8.73;1.40;;;;;;;;;;5033990;28;20104;-48
2024/04/06 06:42:46;;;;;;;6.80;1.40;;;;;;;;;;5034387;28;20022;-46
2024/04/06 06:45:13;;;;;;;10.55;1.58;;;;;;;;;;5033698;28;20079;-47
2024/04/06 06:47:40;;;;;;;11.15;1.58;;;;;;;;;;5034303;28;20060;-49
2024/04/06 06:50:08;;;;;;;9.30;1.40;;;;;;;;;;5033035;28;20029;-47
2024/04/06 06:52:36;;;;;;;8.10;1.58;;;;;;;;;;5034354;28;20020;-50
2024/04/06 06:55:04;;;;;;;7.63;1.52;;;;;;;;;;5033529;28;20468;-47
2024/04/06 06:57:31;;;;;;;9.10;1.65;;;;;;;;;;5032795;28;20408;-45
2024/04/06 06:59:58;;;;;;;8.52;1.58;;;;;;;;;;5034159;28;20025;-49
2024/04/06 07:02:25;;;;;;;9.60;1.30;;;;;;;;;;5034396;28;20452;-50
2024/04/06 07:04:53;;;;;;;8.32;1.20;;;;;;;;;;5033427;28;20021;-48
2024/04/06 07:07:20;;;;;;;5.18;1.48;;;;;;;;;;5033961;28;20029;-51
2024/04/06 07:09:47;;;;;;;8.73;1.90;;;;;;;;;;5034056;28;20038;-47
2024/04/06 07:12:14;;;;;;;6.82;1.35;;;;;;;;;;5033741;28;20103;-49
2024/04/06 07:14:41;;;;;;;6.15;1.30;;;;;;;;;;5033420;28;20036;-48
2024/04/06 07:17:08;;;;;;;5.03;1.15;;;;;;;;;;5033893;28;20088;-47
2024/04/06 07:19:35;;;;;;;6.78;1.38;;;;;;;;;;5033595;28;20492;-47
2024/04/06 07:22:02;;;;;;;11.88;1.33;;;;;;;;;;5033755;28;20028;-47
2024/04/06 07:24:29;;;;;;;5.82;1.48;;;;;;;;;;5033130;28;20037;-46
2024/04/06 07:26:56;;;;;;;7.03;1.13;;;;;;;;;;5033184;28;20052;-47
2024/04/06 07:29:23;;;;;;;8.43;1.30;;;;;;;;;;5032761;28;20500;-46
2024/04/06 07:31:50;;;;;;;9.50;1.30;;;;;;;;;;5033514;28;20088;-49
2024/04/06 07:34:18;;;;;;;5.43;1.30;;;;;;;;;;5033283;28;20053;-48
2024/04/06 07:36:45;;;;;;;8.77;1.30;;;;;;;;;;5031974;28;20123;-48
2024/04/06 07:39:12;;;;;;;3.67;1.00;;;;;;;;;;5033417;28;20029;-47
2024/04/06 07:41:39;;;;;;;8.20;1.48;;;;;;;;;;5033245;28;20038;-50
2024/04/06 07:44:06;;;;;;;6.80;1.17;;;;;;;;;;5033219;28;20518;-49
2024/04/06 07:46:33;;;;;;;4.90;1.20;;;;;;;;;;5032969;28;20064;-52
2024/04/06 07:49:00;;;;;;;10.05;1.52;;;;;;;;;;5033033;28;20029;-48
2024/04/06 07:51:27;;;;;;;5.63;1.38;;;;;;;;;;5032932;28;20117;-50
2024/04/06 07:53:54;;;;;;;8.48;1.23;;;;;;;;;;5033129;28;20026;-51
2024/04/06 07:56:21;;;;;;;7.30;1.30;;;;;;;;;;5032752;28;20025;-49
2024/04/06 07:58:48;;;;;;;9.82;1.17;;;;;;;;;;5032996;28;20037;-46
2024/04/06 08:01:15;;;;;;;7.80;1.00;;;;;;;;;;5033078;28;20022;-50
2024/04/06 08:03:42;;;;;;;5.50;1.33;;;;;;;;;;5032550;28;20057;-47
2024/04/06 08:06:08;;;;;;;3.15;1.20;;;;;;;;;;5032434;28;20037;-46
2024/04/06 08:08:35;;;;;;;10.32;1.40;;;;;;;;;;5032898;28;20038;-49
2024/04/06 08:11:03;;;;;;;8.75;1.27;;;;;;;;;;5032897;28;20060;-47
2024/04/06 08:13:31;;;;;;;6.15;1.42;;;;;;;;;;5032577;28;20025;-49
2024/04/06 08:15:57;;;;;;;6.55;1.40;;;;;;;;;;5032061;28;20113;-49
2024/04/06 08:18:24;;;;;;;7.82;1.20;;;;;;;;;;5032555;28;20033;-47
2024/04/06 08:20:51;;;;;;;6.00;1.00;;;;;;;;;;5032628;28;20083;-49
2024/04/06 08:23:18;;;;;;;5.18;1.00;;;;;;;;;;5031367;28;20072;-51
2024/04/06 08:25:45;;;;;;;5.63;0.90;;;;;;;;;;5031591;28;20061;-51
2024/04/06 08:28:12;;;;;;;10.70;1.38;;;;;;;;;;5032431;28;20439;-47
2024/04/06 08:30:40;;;;;;;3.45;0.90;;;;;;;;;;5032453;28;20037;-47
2024/04/06 08:33:07;;;;;;;5.85;0.90;;;;;;;;;;5031112;28;20029;-50
2024/04/06 08:35:36;;;;;;;4.93;1.30;;;;;;;;;;5031533;28;20520;-47
2024/04/06 08:38:04;;;;;;;7.93;0.80;;;;;;;;;;5032166;28;20029;-48
2024/04/06 08:40:31;;;;;;;4.57;0.93;;;;;;;;;;5032185;28;20037;-48
2024/04/06 08:43:02;;;;;;;7.35;1.23;;;;;;;;;;5032338;28;20021;-48
2024/04/06 08:45:29;;;;;;;5.80;1.13;;;;;;;;;;5031563;28;20091;-47
2024/04/06 08:47:57;;;;;;;6.30;1.40;;;;;;;;;;5032096;28;20037;-46
2024/04/06 08:50:23;;;;;;;6.88;1.02;;;;;;;;;;5032070;28;20049;-48
2024/04/06 08:52:51;;;;;;;7.43;1.35;;;;;;;;;;5032016;28;20025;-48
2024/04/06 08:55:18;;;;;;;7.43;1.10;;;;;;;;;;5031559;28;20484;-48
2024/04/06 08:57:46;;;;;;;4.20;0.82;;;;;;;;;;5031832;28;20044;-47
2024/04/06 09:00:13;;;;;;;5.63;1.23;;;;;;;;;;5031955;28;20373;-51
2024/04/06 09:02:42;;;;;;;5.13;1.45;;;;;;;;;;5031257;28;20109;-50
2024/04/06 09:05:10;;;;;;;7.22;1.10;;;;;;;;;;5031146;28;20065;-54
2024/04/06 09:07:37;;;;;;;6.72;1.67;;;;;;;;;;5030623;28;20037;-51
2024/04/06 09:10:05;;;;;;;8.60;1.20;;;;;;;;;;5031514;28;20498;-48
2024/04/06 09:12:32;;;;;;;5.68;1.20;;;;;;;;;;5031574;28;20480;-51
2024/04/06 09:14:59;;;;;;;5.60;1.17;;;;;;;;;;5031280;28;20037;-47
2024/04/06 09:17:26;;;;;;;4.80;1.20;;;;;;;;;;5031565;28;20032;-50
2024/04/06 09:19:53;;;;;;;7.20;1.10;;;;;;;;;;5031530;28;20048;-48
2024/04/06 09:22:20;;;;;;;5.40;1.35;;;;;;;;;;5031461;28;20064;-46
2024/04/06 09:24:47;;;;;;;7.10;1.20;;;;;;;;;;5030954;28;20033;-47
2024/04/06 09:27:18;;;;;;;4.15;1.05;;;;;;;;;;5031577;28;20037;-48
2024/04/06 09:29:48;;;;;;;3.17;1.23;;;;;;;;;;5031305;28;20037;-47
2024/04/06 09:32:18;;;;;;;7.45;1.42;;;;;;;;;;5031113;28;20388;-47
2024/04/06 09:34:53;;;;;;;9.00;1.30;;;;;;;;;;5030834;28;20492;-48
2024/04/06 09:37:20;;;;;;;8.13;1.38;;;;;;;;;;5031374;28;20451;-47
2024/04/06 09:39:47;;;;;;;3.50;1.25;;;;;;;;;;5031455;28;20087;-47
2024/04/06 09:42:15;;;;;;;5.05;1.45;;;;;;;;;;5031418;28;20112;-49
2024/04/06 09:44:42;;;;;;;4.30;1.23;;;;;;;;;;5030583;28;20037;-47
2024/04/06 09:47:11;;;;;;;6.35;1.65;;;;;;;;;;5031357;28;20036;-48
2024/04/06 09:49:39;;;;;;;5.28;1.33;;;;;;;;;;5031185;28;20025;-49
2024/04/06 09:52:06;;;;;;;6.10;1.30;;;;;;;;;;5031262;28;20025;-49
2024/04/06 09:54:34;;;;;;;5.90;1.45;;;;;;;;;;5029555;28;20025;-47
2024/04/06 09:57:01;;;;;;;4.07;1.23;;;;;;;;;;5031145;28;20075;-46
2024/04/06 09:59:31;;;;;;;5.38;1.38;;;;;;;;;;5030924;28;20072;-45
2024/04/06 10:01:58;;;;;;;6.30;1.23;;;;;;;;;;5031096;28;20033;-48
2024/04/06 10:04:33;;;;;;;4.68;1.30;;;;;;;;;;5030553;28;20041;-46
2024/04/06 10:07:04;;;;;;;3.25;0.93;;;;;;;;;;5031012;28;20037;-47
2024/04/06 10:09:37;;;;;;;6.03;1.40;;;;;;;;;;5030916;28;20022;-46
2024/04/06 10:12:08;;;;;;;5.97;1.50;;;;;;;;;;5029796;28;20377;-48
2024/04/06 10:14:48;;;;;;;7.15;1.42;;;;;;;;;;5032424;28;20183;-46
2024/04/06 10:17:17;;;;;;;4.85;1.25;;;;;;;;;;5034783;28;20389;-50
2024/04/06 10:19:45;;;;;;;6.72;1.55;;;;;;;;;;5034599;28;20507;-48
2024/04/06 10:22:12;;;;;;;5.82;1.75;;;;;;;;;;5034844;28;20029;-47
2024/04/06 10:24:39;;;;;;;5.25;1.10;;;;;;;;;;5034243;28;20041;-45
2024/04/06 10:27:15;;;;;;;5.88;1.17;;;;;;;;;;5033469;28;20505;-46
2024/04/06 10:29:42;;;;;;;4.18;1.17;;;;;;;;;;5034520;28;20025;-46
2024/04/06 10:32:09;;;;;;;4.28;1.05;;;;;;;;;;5034690;28;20025;-47
2024/04/06 10:34:36;;;;;;;5.38;1.17;;;;;;;;;;5033897;28;20049;-45
2024/04/06 10:37:03;;;;;;;5.97;1.20;;;;;;;;;;5034448;28;20026;-46
2024/04/06 10:39:30;;;;;;;7.68;1.20;;;;;;;;;;5033219;28;20100;-45
2024/04/06 10:41:57;;;;;;;8.07;1.48;;;;;;;;;;5034339;28;20466;-45
2024/04/06 10:44:24;;;;;;;7.28;1.30;;;;;;;;;;5034074;28;20029;-47
2024/04/06 10:46:51;;;;;;;5.72;1.30;;;;;;;;;;5034367;28;20072;-48
2024/04/06 10:49:18;;;;;;;8.32;1.38;;;;;;;;;;5034339;28;20025;-53
2024/04/06 10:51:45;;;;;;;3.78;1.08;;;;;;;;;;5034428;28;20500;-46
2024/04/06 10:54:12;;;;;;;7.43;1.00;;;;;;;;;;5033956;28;20025;-51
2024/04/06 10:56:39;;;;;;;5.00;1.05;;;;;;;;;;5033923;28;20044;-45
2024/04/06 10:59:06;;;;;;;5.47;1.17;;;;;;;;;;5034100;28;20041;-48
2024/04/06 11:01:39;;;;;;;9.63;1.30;;;;;;;;;;5033916;28;20026;-52
2024/04/06 11:04:06;;;;;;;4.35;1.30;;;;;;;;;;5033317;28;20045;-47
2024/04/06 11:06:33;;;;;;;4.60;1.20;;;;;;;;;;5033311;28;20025;-45
2024/04/06 11:09:01;;;;;;;10.38;1.50;;;;;;;;;;5034063;28;20091;-47
2024/04/06 11:11:31;;;;;;;3.80;1.10;;;;;;;;;;5061977;22;20052;-40
2024/04/06 11:13:59;;;;;;;7.95;1.23;;;;;;;;;;5053238;28;20140;-40
2024/04/06 11:16:28;;;;;;;5.90;1.05;;;;;;;;;;5053281;28;20036;-40
2024/04/06 11:18:57;;;;;;;6.70;1.35;;;;;;;;;;5053768;28;20043;-40
2024/04/06 11:21:24;;;;;;;7.25;1.38;;;;;;;;;;5035616;28;20025;-40
2024/04/06 11:23:55;;;;;;;3.60;1.05;;;;;;;;;;5055750;28;20064;-41
2024/04/06 11:26:22;;;;;;;4.97;1.38;;;;;;;;;;5056814;28;20376;-41
2024/04/06 11:28:49;;;;;;;11.15;1.58;;;;;;;;;;5060727;28;20017;-40
2024/04/06 11:31:19;;;;;;;7.40;1.40;;;;;;;;;;5060618;28;20040;-40
2024/04/06 11:33:46;;;;;;;6.15;1.25;;;;;;;;;;5062792;28;20028;-40
2024/04/06 11:36:13;;;;;;;8.57;1.15;;;;;;;;;;5062987;28;20025;-40
2024/04/06 11:38:40;;;;;;;7.45;1.05;;;;;;;;;;5061531;28;20029;-40
2024/04/06 11:41:08;;;;;;;8.50;1.27;;;;;;;;;;5063020;28;20078;-40
2024/04/06 11:43:35;;;;;;;5.80;1.40;;;;;;;;;;5056438;28;20029;-40
2024/04/06 11:46:02;;;;;;;8.48;1.15;;;;;;;;;;5051867;28;20033;-40
2024/04/06 11:48:28;;;;;;;7.60;1.60;;;;;;;;;;5052956;28;20486;-40
2024/04/06 11:50:55;;;;;;;7.53;1.30;;;;;;;;;;5052763;28;20036;-40
2024/04/06 11:53:22;;;;;;;6.72;1.30;;;;;;;;;;5048969;28;20036;-41
2024/04/06 11:55:49;;;;;;;11.70;1.52;;;;;;;;;;5066383;28;20070;-40
2024/04/06 11:58:17;;;;;;;11.18;1.60;;;;;;;;;;5052334;28;20052;-40
2024/04/06 12:00:44;;;;;;;7.18;1.25;;;;;;;;;;5052062;28;20029;-39
2024/04/06 12:03:11;;;;;;;9.93;1.60;;;;;;;;;;5052021;28;20021;-39
2024/04/06 12:05:38;;;;;;;8.60;1.45;;;;;;;;;;5051934;28;20048;-39
2024/04/06 12:08:06;;;;;;;7.70;1.50;;;;;;;;;;5052300;28;20498;-39
2024/04/06 12:10:35;;;;;;;10.60;1.48;;;;;;;;;;5070791;28;20055;-39
2024/04/06 12:13:02;;;;;;;11.80;1.80;;;;;;;;;;5055144;28;20025;-39
2024/04/06 12:15:30;;;;;;;11.05;1.50;;;;;;;;;;5051814;28;20183;-40
2024/04/06 12:17:56;;;;;;;11.80;1.63;;;;;;;;;;5052143;28;20074;-39
2024/04/06 12:20:23;;;;;;;10.75;1.50;;;;;;;;;;5051789;28;20036;-40
2024/04/06 12:22:50;;;;;;;13.50;1.85;;;;;;;;;;5051885;28;20040;-40
2024/04/06 12:25:17;;;;;;;11.88;1.83;;;;;;;;;;5049523;28;20093;-40
2024/04/06 12:27:44;;;;;;;9.25;1.60;;;;;;;;;;5070888;28;20025;-40
2024/04/06 12:30:14;;;;;;;7.25;1.60;;;;;;;;;;5070411;28;20028;-40
2024/04/06 12:32:42;;;;;;;13.02;1.73;;;;;;;;;;5070526;28;20109;-40
2024/04/06 12:35:09;;;;;;;9.80;1.67;;;;;;;;;;5070065;28;20494;-40
2024/04/06 12:37:36;;;;;;;8.20;1.52;;;;;;;;;;5070081;28;20027;-40
2024/04/06 12:40:03;;;;;;;10.45;1.60;;;;;;;;;;5066600;28;20382;-39
2024/04/06 12:42:30;;;;;;;11.20;1.50;;;;;;;;;;5066089;28;20177;-39
2024/04/06 12:44:57;;;;;;;13.32;1.52;;;;;;;;;;5058950;28;20044;-40
2024/04/06 12:47:24;;;;;;;11.80;1.60;;;;;;;;;;5065201;28;20508;-41
2024/04/06 12:49:51;;;;;;;17.38;1.85;;;;;;;;;;5069688;28;20560;-41
2024/04/06 12:52:18;;;;;;;20.98;2.00;;;;;;;;;;5061208;28;20017;-41
2024/04/06 12:54:45;;;;;;;12.60;1.73;;;;;;;;;;5061272;28;20027;-41
2024/04/06 12:59:57;;;;;;;16.67;2.15;;;;;;;;;;5065361;28;20406;-42
2024/04/06 13:02:24;;;;;;;24.13;2.50;;;;;;;;;;5069387;28;20493;-42
2024/04/06 13:04:51;;;;;;;18.65;1.90;;;;;;;;;;5049668;28;20383;-42
2024/04/06 13:07:18;;;;;;;16.83;2.00;;;;;;;;;;5065215;28;20024;-41
2024/04/06 13:09:53;;;;;;;19.60;2.28;;;;;;;;;;5066089;28;20036;-41
2024/04/06 13:12:28;;;;;;;22.23;2.30;;;;;;;;;;5060268;28;20032;-42
2024/04/06 13:14:56;;;;;;;18.48;2.67;;;;;;;;;;5058126;28;20489;-41
2024/04/06 13:17:24;;;;;;;23.90;2.58;;;;;;;;;;5070440;28;20374;-41
2024/04/06 13:19:51;;;;;;;54.05;4.78;;;;;;;;;;5063543;28;20029;-41
2024/04/06 13:22:19;;;;;;;48.30;4.35;;;;;;;;;;5060671;28;20109;-41
2024/04/06 13:24:46;;;;;;;43.13;3.50;;;;;;;;;;5043309;28;20048;-42
2024/04/06 13:27:13;;;;;;;27.85;2.97;;;;;;;;;;5062187;28;20389;-41
2024/04/06 13:29:40;;;;;;;33.63;2.85;;;;;;;;;;5064127;28;20082;-40
2024/04/06 13:32:07;;;;;;;23.25;3.05;;;;;;;;;;5059556;28;20497;-41
2024/04/06 13:34:36;;;;;;;19.08;2.40;;;;;;;;;;5060741;28;20040;-41
2024/04/06 13:37:03;;;;;;;12.88;1.90;;;;;;;;;;5060702;28;20044;-40
2024/04/06 13:39:30;;;;;;;18.38;2.25;;;;;;;;;;5058009;28;20020;-41
2024/04/06 13:41:57;;;;;;;25.02;2.15;;;;;;;;;;5060172;28;20029;-41
2024/04/06 13:44:24;;;;;;;25.65;2.58;;;;;;;;;;5057053;28;20372;-44
2024/04/06 13:46:51;;;;;;;23.80;2.33;;;;;;;;;;5062550;28;20028;-42
2024/04/06 13:49:19;;;;;;;18.20;2.10;;;;;;;;;;5064174;28;20094;-40
2024/04/06 13:51:46;;;;;;;15.65;2.58;;;;;;;;;;5065412;28;20035;-40
2024/04/06 13:54:13;;;;;;;15.27;2.13;;;;;;;;;;5063443;28;20036;-42
2024/04/06 13:56:40;;;;;;;23.25;2.53;;;;;;;;;;5063688;28;20036;-41
2024/04/06 13:59:07;;;;;;;20.10;2.10;;;;;;;;;;5046146;28;20029;-41
2024/04/06 14:01:34;;;;;;;18.35;1.95;;;;;;;;;;5049505;28;20102;-44
2024/04/06 14:04:01;;;;;;;22.80;2.50;;;;;;;;;;5069709;28;20041;-41
2024/04/06 14:06:28;;;;;;;33.35;2.50;;;;;;;;;;5045365;28;20083;-41
2024/04/06 14:08:56;;;;;;;19.55;2.50;;;;;;;;;;5065096;28;20017;-42
2024/04/06 14:11:35;;;;;;;32.15;2.85;;;;;;;;;;5071610;28;20052;-41
2024/04/06 14:14:03;;;;;;;37.40;2.63;;;;;;;;;;5057719;28;20033;-42
2024/04/06 14:16:30;;;;;;;33.03;3.08;;;;;;;;;;5059462;28;20032;-41
2024/04/06 14:18:58;;;;;;;33.08;2.65;;;;;;;;;;5054889;28;20435;-41
2024/04/06 14:21:26;;;;;;;37.80;2.92;;;;;;;;;;5054815;28;20039;-41
2024/04/06 14:23:53;;;;;;;40.22;3.10;;;;;;;;;;5057068;28;20078;-41
2024/04/06 14:26:20;;;;;;;38.38;3.58;;;;;;;;;;5068571;28;20036;-44
2024/04/06 14:28:47;;;;;;;39.30;3.45;;;;;;;;;;5072125;28;20039;-41
2024/04/06 14:31:14;;;;;;;34.70;3.67;;;;;;;;;;5048754;28;20031;-42
2024/04/06 14:33:41;;;;;;;56.03;5.15;;;;;;;;;;5054047;28;20029;-41
2024/04/06 14:36:08;;;;;;;49.67;4.63;;;;;;;;;;5053456;28;20115;-41
2024/04/06 14:38:35;;;;;;;41.65;4.72;;;;;;;;;;5053611;28;20033;-41
2024/04/06 14:41:02;;;;;;;82.28;6.70;;;;;;;;;;5064329;28;20032;-41
2024/04/06 14:43:29;;;;;;;84.32;6.38;;;;;;;;;;5062829;28;20112;-41